sensor_id;sensor_type;location;lat;lon;timestamp;P1;durP1;ratioP1;P2;durP2;ratioP2
67191;SDS011;54120;53.504;49.426;2024-03-06T00:02:05;84.40;;;64.68;;
67191;SDS011;54120;53.504;49.426;2024-03-06T00:04:32;66.53;;;39.47;;
67191;SDS011;54120;53.504;49.426;2024-03-06T00:06:59;57.85;;;26.08;;
67191;SDS011;54120;53.504;49.426;2024-03-06T00:09:25;52.60;;;23.38;;
67191;SDS011;54120;53.504;49.426;2024-03-06T00:11:55;55.88;;;34.78;;
67191;SDS011;54120;53.504;49.426;2024-03-06T00:14:23;72.07;;;60.90;;
67191;SDS011;54120;53.504;49.426;2024-03-06T00:16:50;328.73;;;304.95;;
67191;SDS011;54120;53.504;49.426;2024-03-06T00:19:17;615.05;;;571.30;;
67191;SDS011;54120;53.504;49.426;2024-03-06T00:21:44;479.42;;;446.35;;
67191;SDS011;54120;53.504;49.426;2024-03-06T00:24:13;218.95;;;202.52;;
67191;SDS011;54120;53.504;49.426;2024-03-06T00:26:41;346.10;;;320.67;;
67191;SDS011;54120;53.504;49.426;2024-03-06T00:29:08;643.45;;;595.83;;
67191;SDS011;54120;53.504;49.426;2024-03-06T00:31:35;742.35;;;689.17;;
67191;SDS011;54120;53.504;49.426;2024-03-06T00:34:02;680.95;;;633.13;;
67191;SDS011;54120;53.504;49.426;2024-03-06T00:36:28;311.17;;;288.75;;
67191;SDS011;54120;53.504;49.426;2024-03-06T00:38:54;733.22;;;680.53;;
67191;SDS011;54120;53.504;49.426;2024-03-06T00:41:21;788.78;;;730.42;;
67191;SDS011;54120;53.504;49.426;2024-03-06T00:43:47;802.72;;;742.45;;
67191;SDS011;54120;53.504;49.426;2024-03-06T00:46:13;759.50;;;702.63;;
67191;SDS011;54120;53.504;49.426;2024-03-06T00:48:40;789.97;;;731.22;;
67191;SDS011;54120;53.504;49.426;2024-03-06T00:51:06;698.47;;;648.65;;
67191;SDS011;54120;53.504;49.426;2024-03-06T00:53:34;518.85;;;481.75;;
67191;SDS011;54120;53.504;49.426;2024-03-06T00:56:00;572.67;;;531.88;;
67191;SDS011;54120;53.504;49.426;2024-03-06T00:58:27;466.55;;;432.42;;
67191;SDS011;54120;53.504;49.426;2024-03-06T01:00:53;114.43;;;103.28;;
67191;SDS011;54120;53.504;49.426;2024-03-06T01:03:20;275.17;;;254.93;;
67191;SDS011;54120;53.504;49.426;2024-03-06T01:05:46;309.73;;;285.20;;
67191;SDS011;54120;53.504;49.426;2024-03-06T01:08:12;252.13;;;233.55;;
67191;SDS011;54120;53.504;49.426;2024-03-06T01:10:39;259.73;;;238.48;;
67191;SDS011;54120;53.504;49.426;2024-03-06T01:13:05;194.70;;;178.40;;
67191;SDS011;54120;53.504;49.426;2024-03-06T01:15:31;313.38;;;288.17;;
67191;SDS011;54120;53.504;49.426;2024-03-06T01:17:58;363.83;;;333.95;;
67191;SDS011;54120;53.504;49.426;2024-03-06T01:20:24;434.98;;;401.42;;
67191;SDS011;54120;53.504;49.426;2024-03-06T01:22:51;447.77;;;413.80;;
67191;SDS011;54120;53.504;49.426;2024-03-06T01:25:17;419.90;;;385.85;;
67191;SDS011;54120;53.504;49.426;2024-03-06T01:27:43;493.65;;;456.33;;
67191;SDS011;54120;53.504;49.426;2024-03-06T01:30:10;364.80;;;336.17;;
67191;SDS011;54120;53.504;49.426;2024-03-06T01:32:36;486.23;;;448.98;;
67191;SDS011;54120;53.504;49.426;2024-03-06T01:35:03;370.33;;;340.98;;
67191;SDS011;54120;53.504;49.426;2024-03-06T01:37:30;371.70;;;342.35;;
67191;SDS011;54120;53.504;49.426;2024-03-06T01:41:18;438.73;;;404.70;;
67191;SDS011;54120;53.504;49.426;2024-03-06T01:43:44;400.77;;;369.55;;
67191;SDS011;54120;53.504;49.426;2024-03-06T01:46:10;372.58;;;343.00;;
67191;SDS011;54120;53.504;49.426;2024-03-06T01:48:37;327.90;;;301.15;;
67191;SDS011;54120;53.504;49.426;2024-03-06T01:51:04;70.60;;;33.10;;
67191;SDS011;54120;53.504;49.426;2024-03-06T01:53:31;115.05;;;97.47;;
67191;SDS011;54120;53.504;49.426;2024-03-06T01:55:59;81.82;;;37.03;;
67191;SDS011;54120;53.504;49.426;2024-03-06T01:59:16;81.18;;;34.92;;
67191;SDS011;54120;53.504;49.426;2024-03-06T02:01:44;81.43;;;36.97;;
67191;SDS011;54120;53.504;49.426;2024-03-06T02:04:12;84.68;;;35.38;;
67191;SDS011;54120;53.504;49.426;2024-03-06T02:06:39;88.93;;;36.78;;
67191;SDS011;54120;53.504;49.426;2024-03-06T02:09:06;94.35;;;64.20;;
67191;SDS011;54120;53.504;49.426;2024-03-06T02:11:38;91.75;;;66.22;;
67191;SDS011;54120;53.504;49.426;2024-03-06T02:14:04;101.95;;;70.93;;
67191;SDS011;54120;53.504;49.426;2024-03-06T02:16:36;90.82;;;63.95;;
67191;SDS011;54120;53.504;49.426;2024-03-06T02:19:04;122.70;;;109.70;;
67191;SDS011;54120;53.504;49.426;2024-03-06T02:21:31;86.05;;;54.97;;
67191;SDS011;54120;53.504;49.426;2024-03-06T02:23:57;110.65;;;96.53;;
67191;SDS011;54120;53.504;49.426;2024-03-06T02:26:24;115.82;;;102.93;;
67191;SDS011;54120;53.504;49.426;2024-03-06T02:28:51;106.22;;;81.68;;
67191;SDS011;54120;53.504;49.426;2024-03-06T02:31:19;88.80;;;60.08;;
67191;SDS011;54120;53.504;49.426;2024-03-06T02:33:46;85.75;;;67.05;;
67191;SDS011;54120;53.504;49.426;2024-03-06T02:36:14;76.68;;;33.83;;
67191;SDS011;54120;53.504;49.426;2024-03-06T02:38:41;77.63;;;34.65;;
67191;SDS011;54120;53.504;49.426;2024-03-06T02:41:07;78.90;;;39.88;;
67191;SDS011;54120;53.504;49.426;2024-03-06T02:43:34;87.00;;;38.85;;
67191;SDS011;54120;53.504;49.426;2024-03-06T02:46:00;86.18;;;53.50;;
67191;SDS011;54120;53.504;49.426;2024-03-06T02:48:27;110.22;;;82.30;;
67191;SDS011;54120;53.504;49.426;2024-03-06T02:50:54;108.47;;;88.13;;
67191;SDS011;54120;53.504;49.426;2024-03-06T02:53:20;90.35;;;69.50;;
67191;SDS011;54120;53.504;49.426;2024-03-06T02:55:47;102.38;;;49.50;;
67191;SDS011;54120;53.504;49.426;2024-03-06T02:58:14;103.88;;;53.53;;
67191;SDS011;54120;53.504;49.426;2024-03-06T03:00:42;101.10;;;56.45;;
67191;SDS011;54120;53.504;49.426;2024-03-06T03:04:54;132.10;;;97.57;;
67191;SDS011;54120;53.504;49.426;2024-03-06T03:07:20;111.07;;;55.83;;
67191;SDS011;54120;53.504;49.426;2024-03-06T03:09:49;123.40;;;59.88;;
67191;SDS011;54120;53.504;49.426;2024-03-06T03:12:15;124.13;;;75.38;;
67191;SDS011;54120;53.504;49.426;2024-03-06T03:14:42;116.13;;;60.63;;
67191;SDS011;54120;53.504;49.426;2024-03-06T03:17:08;125.50;;;65.82;;
67191;SDS011;54120;53.504;49.426;2024-03-06T03:19:35;128.02;;;58.60;;
67191;SDS011;54120;53.504;49.426;2024-03-06T03:22:01;139.13;;;72.07;;
67191;SDS011;54120;53.504;49.426;2024-03-06T03:24:30;127.28;;;61.15;;
67191;SDS011;54120;53.504;49.426;2024-03-06T03:26:56;112.82;;;58.10;;
67191;SDS011;54120;53.504;49.426;2024-03-06T03:29:23;124.85;;;54.05;;
67191;SDS011;54120;53.504;49.426;2024-03-06T03:31:49;156.27;;;101.13;;
67191;SDS011;54120;53.504;49.426;2024-03-06T03:34:15;126.38;;;52.25;;
67191;SDS011;54120;53.504;49.426;2024-03-06T03:36:42;124.75;;;52.50;;
67191;SDS011;54120;53.504;49.426;2024-03-06T03:39:10;155.77;;;77.35;;
67191;SDS011;54120;53.504;49.426;2024-03-06T03:41:43;117.13;;;51.42;;
67191;SDS011;54120;53.504;49.426;2024-03-06T03:44:12;144.27;;;93.63;;
67191;SDS011;54120;53.504;49.426;2024-03-06T03:46:39;136.90;;;92.40;;
67191;SDS011;54120;53.504;49.426;2024-03-06T03:49:06;108.63;;;39.30;;
67191;SDS011;54120;53.504;49.426;2024-03-06T03:51:32;104.25;;;49.28;;
67191;SDS011;54120;53.504;49.426;2024-03-06T03:53:58;109.30;;;56.50;;
67191;SDS011;54120;53.504;49.426;2024-03-06T03:56:25;99.07;;;57.42;;
67191;SDS011;54120;53.504;49.426;2024-03-06T03:58:51;87.97;;;34.80;;
67191;SDS011;54120;53.504;49.426;2024-03-06T04:01:18;87.75;;;50.38;;
67191;SDS011;54120;53.504;49.426;2024-03-06T04:03:44;91.03;;;55.83;;
67191;SDS011;54120;53.504;49.426;2024-03-06T04:06:10;94.25;;;61.38;;
67191;SDS011;54120;53.504;49.426;2024-03-06T04:08:37;79.30;;;38.53;;
67191;SDS011;54120;53.504;49.426;2024-03-06T04:11:04;76.38;;;33.22;;
67191;SDS011;54120;53.504;49.426;2024-03-06T04:13:37;79.78;;;33.25;;
67191;SDS011;54120;53.504;49.426;2024-03-06T04:16:04;76.53;;;32.88;;
67191;SDS011;54120;53.504;49.426;2024-03-06T04:18:31;70.93;;;32.42;;
67191;SDS011;54120;53.504;49.426;2024-03-06T04:21:04;75.60;;;42.38;;
67191;SDS011;54120;53.504;49.426;2024-03-06T04:23:32;78.55;;;44.35;;
67191;SDS011;54120;53.504;49.426;2024-03-06T04:25:59;76.95;;;43.88;;
67191;SDS011;54120;53.504;49.426;2024-03-06T04:28:26;73.20;;;45.33;;
67191;SDS011;54120;53.504;49.426;2024-03-06T04:30:52;68.22;;;36.63;;
67191;SDS011;54120;53.504;49.426;2024-03-06T04:33:19;72.05;;;37.55;;
67191;SDS011;54120;53.504;49.426;2024-03-06T04:35:46;93.25;;;76.88;;
67191;SDS011;54120;53.504;49.426;2024-03-06T04:38:12;141.63;;;128.05;;
67191;SDS011;54120;53.504;49.426;2024-03-06T04:40:39;176.77;;;160.73;;
67191;SDS011;54120;53.504;49.426;2024-03-06T04:43:05;585.08;;;542.13;;
67191;SDS011;54120;53.504;49.426;2024-03-06T04:45:33;719.42;;;665.88;;
67191;SDS011;54120;53.504;49.426;2024-03-06T04:47:59;736.58;;;679.83;;
67191;SDS011;54120;53.504;49.426;2024-03-06T04:50:26;754.50;;;696.38;;
67191;SDS011;54120;53.504;49.426;2024-03-06T04:52:53;747.75;;;689.85;;
67191;SDS011;54120;53.504;49.426;2024-03-06T04:55:19;447.13;;;412.35;;
67191;SDS011;54120;53.504;49.426;2024-03-06T04:57:48;279.73;;;258.38;;
67191;SDS011;54120;53.504;49.426;2024-03-06T05:00:15;233.88;;;214.70;;
67191;SDS011;54120;53.504;49.426;2024-03-06T05:02:41;72.55;;;49.38;;
67191;SDS011;54120;53.504;49.426;2024-03-06T05:05:08;61.00;;;33.75;;
67191;SDS011;54120;53.504;49.426;2024-03-06T05:07:34;63.35;;;32.88;;
67191;SDS011;54120;53.504;49.426;2024-03-06T05:10:01;59.90;;;31.33;;
67191;SDS011;54120;53.504;49.426;2024-03-06T05:12:27;58.15;;;29.88;;
67191;SDS011;54120;53.504;49.426;2024-03-06T05:14:55;57.35;;;30.67;;
67191;SDS011;54120;53.504;49.426;2024-03-06T05:17:21;54.90;;;28.58;;
67191;SDS011;54120;53.504;49.426;2024-03-06T05:19:48;53.03;;;27.98;;
67191;SDS011;54120;53.504;49.426;2024-03-06T05:22:15;59.25;;;27.85;;
67191;SDS011;54120;53.504;49.426;2024-03-06T05:24:42;58.17;;;28.67;;
67191;SDS011;54120;53.504;49.426;2024-03-06T05:27:09;57.80;;;29.63;;
67191;SDS011;54120;53.504;49.426;2024-03-06T05:29:39;52.42;;;25.02;;
67191;SDS011;54120;53.504;49.426;2024-03-06T05:32:05;58.95;;;29.30;;
67191;SDS011;54120;53.504;49.426;2024-03-06T05:34:35;48.33;;;24.17;;
67191;SDS011;54120;53.504;49.426;2024-03-06T05:37:01;53.22;;;26.52;;
67191;SDS011;54120;53.504;49.426;2024-03-06T05:39:30;49.53;;;24.83;;
67191;SDS011;54120;53.504;49.426;2024-03-06T05:42:00;51.00;;;25.52;;
67191;SDS011;54120;53.504;49.426;2024-03-06T05:44:30;47.80;;;24.58;;
67191;SDS011;54120;53.504;49.426;2024-03-06T05:46:58;56.30;;;26.45;;
67191;SDS011;54120;53.504;49.426;2024-03-06T05:49:25;84.00;;;76.03;;
67191;SDS011;54120;53.504;49.426;2024-03-06T05:51:51;51.28;;;26.65;;
67191;SDS011;54120;53.504;49.426;2024-03-06T05:54:19;51.83;;;26.98;;
67191;SDS011;54120;53.504;49.426;2024-03-06T05:56:49;53.08;;;30.48;;
67191;SDS011;54120;53.504;49.426;2024-03-06T05:59:17;51.88;;;26.83;;
67191;SDS011;54120;53.504;49.426;2024-03-06T06:01:44;50.22;;;26.88;;
67191;SDS011;54120;53.504;49.426;2024-03-06T06:04:11;46.40;;;28.30;;
67191;SDS011;54120;53.504;49.426;2024-03-06T06:06:39;54.65;;;30.88;;
67191;SDS011;54120;53.504;49.426;2024-03-06T06:09:07;50.17;;;28.95;;
67191;SDS011;54120;53.504;49.426;2024-03-06T06:11:42;46.50;;;24.50;;
67191;SDS011;54120;53.504;49.426;2024-03-06T06:14:09;47.47;;;24.98;;
67191;SDS011;54120;53.504;49.426;2024-03-06T06:16:38;41.65;;;24.05;;
67191;SDS011;54120;53.504;49.426;2024-03-06T06:19:09;50.13;;;25.75;;
67191;SDS011;54120;53.504;49.426;2024-03-06T06:21:36;48.20;;;25.70;;
67191;SDS011;54120;53.504;49.426;2024-03-06T06:24:03;54.28;;;29.05;;
67191;SDS011;54120;53.504;49.426;2024-03-06T06:26:30;48.58;;;31.45;;
67191;SDS011;54120;53.504;49.426;2024-03-06T06:28:57;53.92;;;30.40;;
67191;SDS011;54120;53.504;49.426;2024-03-06T06:31:24;48.60;;;30.45;;
67191;SDS011;54120;53.504;49.426;2024-03-06T06:33:52;55.53;;;31.92;;
67191;SDS011;54120;53.504;49.426;2024-03-06T06:36:19;58.45;;;33.78;;
67191;SDS011;54120;53.504;49.426;2024-03-06T06:38:46;54.80;;;33.80;;
67191;SDS011;54120;53.504;49.426;2024-03-06T06:41:13;56.38;;;34.70;;
67191;SDS011;54120;53.504;49.426;2024-03-06T06:43:40;57.50;;;34.03;;
67191;SDS011;54120;53.504;49.426;2024-03-06T06:46:07;54.72;;;33.08;;
67191;SDS011;54120;53.504;49.426;2024-03-06T06:48:34;52.58;;;34.33;;
67191;SDS011;54120;53.504;49.426;2024-03-06T06:51:00;57.28;;;33.92;;
67191;SDS011;54120;53.504;49.426;2024-03-06T06:53:29;52.55;;;32.90;;
67191;SDS011;54120;53.504;49.426;2024-03-06T06:55:55;49.17;;;33.50;;
67191;SDS011;54120;53.504;49.426;2024-03-06T06:58:22;52.47;;;33.42;;
67191;SDS011;54120;53.504;49.426;2024-03-06T07:00:48;62.00;;;34.55;;
67191;SDS011;54120;53.504;49.426;2024-03-06T07:03:15;48.58;;;31.42;;
67191;SDS011;54120;53.504;49.426;2024-03-06T07:05:41;48.90;;;31.65;;
67191;SDS011;54120;53.504;49.426;2024-03-06T07:08:08;49.85;;;31.25;;
67191;SDS011;54120;53.504;49.426;2024-03-06T07:10:34;46.22;;;30.80;;
67191;SDS011;54120;53.504;49.426;2024-03-06T07:13:04;46.50;;;28.45;;
67191;SDS011;54120;53.504;49.426;2024-03-06T07:15:31;41.47;;;24.80;;
67191;SDS011;54120;53.504;49.426;2024-03-06T07:17:58;42.70;;;26.27;;
67191;SDS011;54120;53.504;49.426;2024-03-06T07:20:24;37.10;;;22.25;;
67191;SDS011;54120;53.504;49.426;2024-03-06T07:22:51;33.03;;;19.25;;
67191;SDS011;54120;53.504;49.426;2024-03-06T07:25:17;30.20;;;18.48;;
67191;SDS011;54120;53.504;49.426;2024-03-06T07:27:43;29.52;;;16.40;;
67191;SDS011;54120;53.504;49.426;2024-03-06T07:30:10;25.65;;;17.02;;
67191;SDS011;54120;53.504;49.426;2024-03-06T07:32:37;28.25;;;16.73;;
67191;SDS011;54120;53.504;49.426;2024-03-06T07:35:03;26.05;;;16.33;;
67191;SDS011;54120;53.504;49.426;2024-03-06T07:37:29;22.20;;;15.65;;
67191;SDS011;54120;53.504;49.426;2024-03-06T07:39:56;26.58;;;19.85;;
67191;SDS011;54120;53.504;49.426;2024-03-06T07:42:24;22.77;;;16.15;;
67191;SDS011;54120;53.504;49.426;2024-03-06T07:44:50;24.17;;;16.60;;
67191;SDS011;54120;53.504;49.426;2024-03-06T07:47:17;28.25;;;17.88;;
67191;SDS011;54120;53.504;49.426;2024-03-06T07:49:43;24.90;;;16.15;;
67191;SDS011;54120;53.504;49.426;2024-03-06T07:52:10;27.70;;;16.15;;
67191;SDS011;54120;53.504;49.426;2024-03-06T07:54:36;22.40;;;15.38;;
67191;SDS011;54120;53.504;49.426;2024-03-06T07:57:05;20.55;;;14.48;;
67191;SDS011;54120;53.504;49.426;2024-03-06T07:59:31;15.95;;;11.70;;
67191;SDS011;54120;53.504;49.426;2024-03-06T08:01:57;14.25;;;10.55;;
67191;SDS011;54120;53.504;49.426;2024-03-06T08:04:24;13.77;;;10.48;;
67191;SDS011;54120;53.504;49.426;2024-03-06T08:06:50;15.93;;;10.88;;
67191;SDS011;54120;53.504;49.426;2024-03-06T08:09:16;14.93;;;12.10;;
67191;SDS011;54120;53.504;49.426;2024-03-06T08:11:43;15.30;;;11.07;;
67191;SDS011;54120;53.504;49.426;2024-03-06T08:14:09;16.13;;;10.35;;
67191;SDS011;54120;53.504;49.426;2024-03-06T08:16:35;14.27;;;11.15;;
67191;SDS011;54120;53.504;49.426;2024-03-06T08:19:03;16.30;;;11.40;;
67191;SDS011;54120;53.504;49.426;2024-03-06T08:21:29;14.13;;;10.68;;
67191;SDS011;54120;53.504;49.426;2024-03-06T08:23:56;9.25;;;7.55;;
67191;SDS011;54120;53.504;49.426;2024-03-06T08:26:22;6.50;;;5.72;;
67191;SDS011;54120;53.504;49.426;2024-03-06T08:28:48;6.38;;;5.78;;
67191;SDS011;54120;53.504;49.426;2024-03-06T08:31:15;6.38;;;5.47;;
67191;SDS011;54120;53.504;49.426;2024-03-06T08:33:43;7.32;;;6.47;;
67191;SDS011;54120;53.504;49.426;2024-03-06T08:36:10;9.82;;;8.35;;
67191;SDS011;54120;53.504;49.426;2024-03-06T08:38:36;7.28;;;6.15;;
67191;SDS011;54120;53.504;49.426;2024-03-06T08:41:03;9.23;;;5.95;;
67191;SDS011;54120;53.504;49.426;2024-03-06T08:43:31;8.60;;;6.78;;
67191;SDS011;54120;53.504;49.426;2024-03-06T08:45:57;9.77;;;6.32;;
67191;SDS011;54120;53.504;49.426;2024-03-06T08:48:23;11.65;;;5.90;;
67191;SDS011;54120;53.504;49.426;2024-03-06T08:50:50;7.72;;;5.63;;
67191;SDS011;54120;53.504;49.426;2024-03-06T08:53:16;8.50;;;7.60;;
67191;SDS011;54120;53.504;49.426;2024-03-06T08:55:43;11.82;;;6.43;;
67191;SDS011;54120;53.504;49.426;2024-03-06T08:58:09;11.43;;;9.18;;
67191;SDS011;54120;53.504;49.426;2024-03-06T09:00:35;8.85;;;7.00;;
67191;SDS011;54120;53.504;49.426;2024-03-06T09:03:03;8.70;;;7.15;;
67191;SDS011;54120;53.504;49.426;2024-03-06T09:05:29;6.38;;;5.13;;
67191;SDS011;54120;53.504;49.426;2024-03-06T09:07:56;7.38;;;5.28;;
67191;SDS011;54120;53.504;49.426;2024-03-06T09:10:23;7.80;;;5.22;;
67191;SDS011;54120;53.504;49.426;2024-03-06T09:12:49;6.80;;;6.13;;
67191;SDS011;54120;53.504;49.426;2024-03-06T09:15:15;7.93;;;6.57;;
67191;SDS011;54120;53.504;49.426;2024-03-06T09:17:43;10.70;;;9.05;;
67191;SDS011;54120;53.504;49.426;2024-03-06T09:20:11;13.00;;;7.25;;
67191;SDS011;54120;53.504;49.426;2024-03-06T09:22:38;10.00;;;7.38;;
67191;SDS011;54120;53.504;49.426;2024-03-06T09:25:05;8.02;;;5.65;;
67191;SDS011;54120;53.504;49.426;2024-03-06T09:27:32;6.78;;;5.40;;
67191;SDS011;54120;53.504;49.426;2024-03-06T09:29:59;7.07;;;4.80;;
67191;SDS011;54120;53.504;49.426;2024-03-06T09:32:25;9.00;;;5.78;;
67191;SDS011;54120;53.504;49.426;2024-03-06T09:34:52;7.25;;;6.32;;
67191;SDS011;54120;53.504;49.426;2024-03-06T09:37:19;7.45;;;6.75;;
67191;SDS011;54120;53.504;49.426;2024-03-06T09:39:45;4.72;;;4.22;;
67191;SDS011;54120;53.504;49.426;2024-03-06T09:42:14;4.75;;;3.92;;
67191;SDS011;54120;53.504;49.426;2024-03-06T09:44:41;5.40;;;4.80;;
67191;SDS011;54120;53.504;49.426;2024-03-06T09:47:08;4.72;;;4.32;;
67191;SDS011;54120;53.504;49.426;2024-03-06T09:52:09;4.70;;;3.70;;
67191;SDS011;54120;53.504;49.426;2024-03-06T09:54:36;4.65;;;4.25;;
67191;SDS011;54120;53.504;49.426;2024-03-06T09:57:05;7.65;;;7.07;;
67191;SDS011;54120;53.504;49.426;2024-03-06T09:59:31;4.47;;;4.03;;
67191;SDS011;54120;53.504;49.426;2024-03-06T10:01:58;5.18;;;4.25;;
67191;SDS011;54120;53.504;49.426;2024-03-06T10:04:29;5.05;;;4.28;;
67191;SDS011;54120;53.504;49.426;2024-03-06T10:06:59;4.32;;;3.92;;
67191;SDS011;54120;53.504;49.426;2024-03-06T10:09:28;5.57;;;4.72;;
67191;SDS011;54120;53.504;49.426;2024-03-06T10:11:58;4.45;;;4.00;;
67191;SDS011;54120;53.504;49.426;2024-03-06T10:14:25;6.38;;;4.50;;
67191;SDS011;54120;53.504;49.426;2024-03-06T10:16:52;4.90;;;4.20;;
67191;SDS011;54120;53.504;49.426;2024-03-06T10:19:23;4.57;;;3.75;;
67191;SDS011;54120;53.504;49.426;2024-03-06T10:21:53;5.80;;;3.85;;
67191;SDS011;54120;53.504;49.426;2024-03-06T10:26:49;5.80;;;5.30;;
67191;SDS011;54120;53.504;49.426;2024-03-06T10:29:17;5.68;;;4.90;;
67191;SDS011;54120;53.504;49.426;2024-03-06T10:32:02;6.38;;;5.78;;
67191;SDS011;54120;53.504;49.426;2024-03-06T10:34:28;5.20;;;4.70;;
67191;SDS011;54120;53.504;49.426;2024-03-06T10:36:55;10.75;;;5.28;;
67191;SDS011;54120;53.504;49.426;2024-03-06T10:39:23;5.15;;;4.65;;
67191;SDS011;54120;53.504;49.426;2024-03-06T10:41:56;6.00;;;5.40;;
67191;SDS011;54120;53.504;49.426;2024-03-06T10:44:26;6.05;;;5.47;;
67191;SDS011;54120;53.504;49.426;2024-03-06T10:46:58;6.57;;;5.97;;
67191;SDS011;54120;53.504;49.426;2024-03-06T10:49:29;6.05;;;5.45;;
67191;SDS011;54120;53.504;49.426;2024-03-06T10:52:00;5.47;;;4.97;;
67191;SDS011;54120;53.504;49.426;2024-03-06T10:54:32;5.38;;;4.88;;
67191;SDS011;54120;53.504;49.426;2024-03-06T10:57:00;6.40;;;5.63;;
67191;SDS011;54120;53.504;49.426;2024-03-06T10:59:28;5.90;;;5.40;;
67191;SDS011;54120;53.504;49.426;2024-03-06T11:01:56;5.55;;;5.00;;
67191;SDS011;54120;53.504;49.426;2024-03-06T11:04:29;9.75;;;6.82;;
67191;SDS011;54120;53.504;49.426;2024-03-06T11:07:00;9.43;;;7.45;;
67191;SDS011;54120;53.504;49.426;2024-03-06T11:09:28;10.02;;;8.63;;
67191;SDS011;54120;53.504;49.426;2024-03-06T11:12:00;7.10;;;6.05;;
67191;SDS011;54120;53.504;49.426;2024-03-06T11:14:32;6.50;;;5.20;;
67191;SDS011;54120;53.504;49.426;2024-03-06T11:17:06;4.32;;;3.92;;
67191;SDS011;54120;53.504;49.426;2024-03-06T11:28:25;4.95;;;4.15;;
67191;SDS011;54120;53.504;49.426;2024-03-06T11:30:55;5.10;;;4.30;;
67191;SDS011;54120;53.504;49.426;2024-03-06T11:33:44;4.22;;;3.60;;
67191;SDS011;54120;53.504;49.426;2024-03-06T11:36:25;6.88;;;4.60;;
67191;SDS011;54120;53.504;49.426;2024-03-06T11:39:07;4.53;;;4.03;;
67191;SDS011;54120;53.504;49.426;2024-03-06T11:44:12;7.18;;;5.15;;
67191;SDS011;54120;53.504;49.426;2024-03-06T11:51:47;6.15;;;4.75;;
67191;SDS011;54120;53.504;49.426;2024-03-06T11:54:14;10.50;;;6.50;;
67191;SDS011;54120;53.504;49.426;2024-03-06T11:56:41;5.00;;;4.50;;
67191;SDS011;54120;53.504;49.426;2024-03-06T11:59:10;5.20;;;4.15;;
67191;SDS011;54120;53.504;49.426;2024-03-06T12:01:37;6.28;;;4.45;;
67191;SDS011;54120;53.504;49.426;2024-03-06T12:04:03;5.80;;;4.93;;
67191;SDS011;54120;53.504;49.426;2024-03-06T12:06:32;6.90;;;6.20;;
67191;SDS011;54120;53.504;49.426;2024-03-06T12:08:59;5.05;;;4.40;;
67191;SDS011;54120;53.504;49.426;2024-03-06T12:11:26;7.28;;;4.45;;
67191;SDS011;54120;53.504;49.426;2024-03-06T12:13:54;5.78;;;5.18;;
67191;SDS011;54120;53.504;49.426;2024-03-06T12:16:22;6.65;;;5.32;;
67191;SDS011;54120;53.504;49.426;2024-03-06T12:18:55;5.43;;;4.13;;
67191;SDS011;54120;53.504;49.426;2024-03-06T12:21:31;7.43;;;5.43;;
67191;SDS011;54120;53.504;49.426;2024-03-06T12:24:06;6.32;;;4.38;;
67191;SDS011;54120;53.504;49.426;2024-03-06T12:26:34;6.90;;;5.43;;
67191;SDS011;54120;53.504;49.426;2024-03-06T12:29:06;5.30;;;4.80;;
67191;SDS011;54120;53.504;49.426;2024-03-06T12:31:34;5.88;;;5.30;;
67191;SDS011;54120;53.504;49.426;2024-03-06T12:34:01;6.07;;;5.45;;
67191;SDS011;54120;53.504;49.426;2024-03-06T12:36:30;6.03;;;5.43;;
67191;SDS011;54120;53.504;49.426;2024-03-06T12:39:00;7.78;;;7.00;;
67191;SDS011;54120;53.504;49.426;2024-03-06T12:41:29;6.90;;;4.60;;
67191;SDS011;54120;53.504;49.426;2024-03-06T12:43:55;7.22;;;6.30;;
67191;SDS011;54120;53.504;49.426;2024-03-06T12:46:22;5.72;;;4.90;;
67191;SDS011;54120;53.504;49.426;2024-03-06T12:48:50;5.85;;;4.50;;
67191;SDS011;54120;53.504;49.426;2024-03-06T12:51:17;5.25;;;4.63;;
67191;SDS011;54120;53.504;49.426;2024-03-06T12:53:43;7.13;;;4.90;;
67191;SDS011;54120;53.504;49.426;2024-03-06T12:56:09;6.40;;;4.85;;
67191;SDS011;54120;53.504;49.426;2024-03-06T12:58:36;6.45;;;5.30;;
67191;SDS011;54120;53.504;49.426;2024-03-06T13:01:02;5.55;;;5.00;;
67191;SDS011;54120;53.504;49.426;2024-03-06T13:03:29;8.02;;;5.43;;
67191;SDS011;54120;53.504;49.426;2024-03-06T13:05:55;6.63;;;5.78;;
67191;SDS011;54120;53.504;49.426;2024-03-06T13:08:22;20.65;;;19.05;;
67191;SDS011;54120;53.504;49.426;2024-03-06T13:10:49;22.95;;;21.55;;
67191;SDS011;54120;53.504;49.426;2024-03-06T13:13:15;31.70;;;29.52;;
67191;SDS011;54120;53.504;49.426;2024-03-06T13:15:41;14.98;;;12.52;;
67191;SDS011;54120;53.504;49.426;2024-03-06T13:18:09;8.68;;;6.03;;
67191;SDS011;54120;53.504;49.426;2024-03-06T13:20:35;17.20;;;15.82;;
67191;SDS011;54120;53.504;49.426;2024-03-06T13:23:02;7.47;;;5.63;;
67191;SDS011;54120;53.504;49.426;2024-03-06T13:25:29;11.60;;;10.60;;
67191;SDS011;54120;53.504;49.426;2024-03-06T13:27:55;21.90;;;20.33;;
67191;SDS011;54120;53.504;49.426;2024-03-06T13:30:21;8.98;;;8.07;;
67191;SDS011;54120;53.504;49.426;2024-03-06T13:32:49;29.00;;;26.80;;
67191;SDS011;54120;53.504;49.426;2024-03-06T13:35:15;9.60;;;5.57;;
67191;SDS011;54120;53.504;49.426;2024-03-06T13:37:42;8.32;;;5.32;;
67191;SDS011;54120;53.504;49.426;2024-03-06T13:40:09;9.52;;;6.85;;
67191;SDS011;54120;53.504;49.426;2024-03-06T13:42:44;38.72;;;36.17;;
67191;SDS011;54120;53.504;49.426;2024-03-06T13:45:15;104.78;;;98.72;;
67191;SDS011;54120;53.504;49.426;2024-03-06T13:47:41;197.43;;;186.13;;
67191;SDS011;54120;53.504;49.426;2024-03-06T13:50:09;13.93;;;12.60;;
67191;SDS011;54120;53.504;49.426;2024-03-06T13:52:37;227.00;;;213.32;;
67191;SDS011;54120;53.504;49.426;2024-03-06T13:55:03;30.15;;;27.88;;
67191;SDS011;54120;53.504;49.426;2024-03-06T13:57:34;202.02;;;190.90;;
67191;SDS011;54120;53.504;49.426;2024-03-06T14:00:08;319.73;;;301.23;;
67191;SDS011;54120;53.504;49.426;2024-03-06T14:02:39;272.30;;;257.70;;
67191;SDS011;54120;53.504;49.426;2024-03-06T14:05:06;197.77;;;187.07;;
67191;SDS011;54120;53.504;49.426;2024-03-06T14:07:33;90.30;;;84.88;;
67191;SDS011;54120;53.504;49.426;2024-03-06T14:10:00;29.00;;;26.90;;
67191;SDS011;54120;53.504;49.426;2024-03-06T14:12:27;56.20;;;52.65;;
67191;SDS011;54120;53.504;49.426;2024-03-06T14:14:53;168.68;;;159.10;;
67191;SDS011;54120;53.504;49.426;2024-03-06T14:17:19;224.15;;;211.65;;
67191;SDS011;54120;53.504;49.426;2024-03-06T14:19:46;225.63;;;212.90;;
67191;SDS011;54120;53.504;49.426;2024-03-06T14:22:12;117.65;;;110.78;;
67191;SDS011;54120;53.504;49.426;2024-03-06T14:24:38;108.18;;;102.05;;
67191;SDS011;54120;53.504;49.426;2024-03-06T14:27:05;244.57;;;231.43;;
67191;SDS011;54120;53.504;49.426;2024-03-06T14:29:33;246.02;;;232.18;;
67191;SDS011;54120;53.504;49.426;2024-03-06T14:31:59;29.83;;;27.55;;
67191;SDS011;54120;53.504;49.426;2024-03-06T14:34:26;20.98;;;19.33;;
67191;SDS011;54120;53.504;49.426;2024-03-06T14:36:52;21.92;;;20.23;;
67191;SDS011;54120;53.504;49.426;2024-03-06T14:39:19;19.70;;;17.30;;